Visalia, California
Current Conditions -  °F | °C
As of 7:35 PM on Friday 28 Nov 2014 (Local Time) from KVIS Reporting Station
Clear Clear  
Wind Chill: 52°   Ceiling: Unl
Heat Index: 52°   Visibility: 5mi
Dew Point: 39°   Wind: 0mph
Humidity: 62%   Direction: NA
Pressure: 29.89"   Gusts: NA
Location:  36.33°N, 119.29°W
Report Text: KVIS 290335Z 00000KT 5SM CLR 11/04 A2989 RMK AO1
Loading
Personal Weather Stations






























Interactive Weather Map New forecast layout! Learn more

10-Day Weather Forecast

Advertisements
Track Severe Weather on mobile